sensor_id;sensor_type;location;lat;lon;timestamp;P1;durP1;ratioP1;P2;durP2;ratioP2
6131;SDS011;3097;42.692;23.278;2022-12-07T00:01:14;65.73;;;27.33;;
6131;SDS011;3097;42.692;23.278;2022-12-07T00:03:42;63.40;;;29.73;;
6131;SDS011;3097;42.692;23.278;2022-12-07T00:06:10;64.63;;;27.60;;
6131;SDS011;3097;42.692;23.278;2022-12-07T00:08:37;64.97;;;28.10;;
6131;SDS011;3097;42.692;23.278;2022-12-07T00:11:03;61.40;;;27.93;;
6131;SDS011;3097;42.692;23.278;2022-12-07T00:13:30;61.30;;;26.90;;
6131;SDS011;3097;42.692;23.278;2022-12-07T00:16:01;66.50;;;28.07;;
6131;SDS011;3097;42.692;23.278;2022-12-07T00:18:29;63.00;;;27.23;;
6131;SDS011;3097;42.692;23.278;2022-12-07T00:20:59;56.47;;;26.83;;
6131;SDS011;3097;42.692;23.278;2022-12-07T00:23:45;67.67;;;28.20;;
6131;SDS011;3097;42.692;23.278;2022-12-07T00:28:50;57.63;;;27.63;;
6131;SDS011;3097;42.692;23.278;2022-12-07T00:31:18;68.73;;;27.67;;
6131;SDS011;3097;42.692;23.278;2022-12-07T00:33:46;69.30;;;28.63;;
6131;SDS011;3097;42.692;23.278;2022-12-07T00:36:13;70.13;;;29.83;;
6131;SDS011;3097;42.692;23.278;2022-12-07T00:38:40;78.47;;;29.97;;
6131;SDS011;3097;42.692;23.278;2022-12-07T00:41:07;56.23;;;27.13;;
6131;SDS011;3097;42.692;23.278;2022-12-07T00:43:37;62.13;;;23.83;;
6131;SDS011;3097;42.692;23.278;2022-12-07T00:46:03;48.77;;;22.33;;
6131;SDS011;3097;42.692;23.278;2022-12-07T00:48:29;49.43;;;22.10;;
6131;SDS011;3097;42.692;23.278;2022-12-07T00:50:55;45.23;;;21.23;;
6131;SDS011;3097;42.692;23.278;2022-12-07T00:53:21;50.97;;;21.37;;
6131;SDS011;3097;42.692;23.278;2022-12-07T00:55:47;48.70;;;21.13;;
6131;SDS011;3097;42.692;23.278;2022-12-07T00:58:12;42.03;;;18.60;;
6131;SDS011;3097;42.692;23.278;2022-12-07T01:00:38;38.03;;;18.50;;
6131;SDS011;3097;42.692;23.278;2022-12-07T01:03:06;39.37;;;16.90;;
6131;SDS011;3097;42.692;23.278;2022-12-07T01:05:33;33.57;;;16.90;;
6131;SDS011;3097;42.692;23.278;2022-12-07T01:07:59;37.93;;;17.97;;
6131;SDS011;3097;42.692;23.278;2022-12-07T01:10:26;36.93;;;17.17;;
6131;SDS011;3097;42.692;23.278;2022-12-07T01:12:52;37.77;;;16.73;;
6131;SDS011;3097;42.692;23.278;2022-12-07T01:15:18;36.97;;;17.20;;
6131;SDS011;3097;42.692;23.278;2022-12-07T01:17:44;44.03;;;19.23;;
6131;SDS011;3097;42.692;23.278;2022-12-07T01:20:09;44.57;;;19.17;;
6131;SDS011;3097;42.692;23.278;2022-12-07T01:22:37;39.47;;;18.97;;
6131;SDS011;3097;42.692;23.278;2022-12-07T01:25:03;43.97;;;19.03;;
6131;SDS011;3097;42.692;23.278;2022-12-07T01:27:29;47.43;;;19.70;;
6131;SDS011;3097;42.692;23.278;2022-12-07T01:29:54;49.47;;;20.93;;
6131;SDS011;3097;42.692;23.278;2022-12-07T01:32:20;42.17;;;19.93;;
6131;SDS011;3097;42.692;23.278;2022-12-07T01:34:47;42.67;;;19.23;;
6131;SDS011;3097;42.692;23.278;2022-12-07T01:37:13;42.77;;;19.60;;
6131;SDS011;3097;42.692;23.278;2022-12-07T01:39:38;45.03;;;20.70;;
6131;SDS011;3097;42.692;23.278;2022-12-07T01:42:04;42.10;;;19.93;;
6131;SDS011;3097;42.692;23.278;2022-12-07T01:44:30;39.13;;;18.77;;
6131;SDS011;3097;42.692;23.278;2022-12-07T01:46:57;40.67;;;19.67;;
6131;SDS011;3097;42.692;23.278;2022-12-07T01:52:18;42.13;;;19.63;;
6131;SDS011;3097;42.692;23.278;2022-12-07T01:54:45;43.73;;;20.10;;
6131;SDS011;3097;42.692;23.278;2022-12-07T01:57:13;44.50;;;19.57;;
6131;SDS011;3097;42.692;23.278;2022-12-07T01:59:40;35.70;;;17.07;;
6131;SDS011;3097;42.692;23.278;2022-12-07T02:02:09;41.33;;;18.77;;
6131;SDS011;3097;42.692;23.278;2022-12-07T02:04:39;46.40;;;19.43;;
6131;SDS011;3097;42.692;23.278;2022-12-07T02:07:05;39.33;;;18.67;;
6131;SDS011;3097;42.692;23.278;2022-12-07T02:09:30;37.70;;;18.50;;
6131;SDS011;3097;42.692;23.278;2022-12-07T02:11:56;41.93;;;17.60;;
6131;SDS011;3097;42.692;23.278;2022-12-07T02:14:22;37.57;;;18.07;;
6131;SDS011;3097;42.692;23.278;2022-12-07T02:20:00;49.87;;;21.37;;
6131;SDS011;3097;42.692;23.278;2022-12-07T02:25:33;43.13;;;18.37;;
6131;SDS011;3097;42.692;23.278;2022-12-07T02:30:58;33.23;;;15.93;;
6131;SDS011;3097;42.692;23.278;2022-12-07T02:33:35;38.27;;;17.13;;
6131;SDS011;3097;42.692;23.278;2022-12-07T02:36:06;33.73;;;17.13;;
6131;SDS011;3097;42.692;23.278;2022-12-07T02:41:02;34.57;;;16.00;;
6131;SDS011;3097;42.692;23.278;2022-12-07T02:43:38;33.47;;;16.70;;
6131;SDS011;3097;42.692;23.278;2022-12-07T02:46:09;37.60;;;17.20;;
6131;SDS011;3097;42.692;23.278;2022-12-07T02:48:39;32.83;;;15.20;;
6131;SDS011;3097;42.692;23.278;2022-12-07T02:51:06;29.23;;;14.43;;
6131;SDS011;3097;42.692;23.278;2022-12-07T02:53:41;32.13;;;14.23;;
6131;SDS011;3097;42.692;23.278;2022-12-07T03:03:48;31.33;;;15.13;;
6131;SDS011;3097;42.692;23.278;2022-12-07T03:06:31;28.37;;;13.93;;
6131;SDS011;3097;42.692;23.278;2022-12-07T03:09:09;31.67;;;14.80;;
6131;SDS011;3097;42.692;23.278;2022-12-07T03:11:46;32.20;;;15.63;;
6131;SDS011;3097;42.692;23.278;2022-12-07T03:14:22;35.37;;;16.53;;
6131;SDS011;3097;42.692;23.278;2022-12-07T03:17:03;36.27;;;16.63;;
6131;SDS011;3097;42.692;23.278;2022-12-07T03:19:35;36.90;;;17.40;;
6131;SDS011;3097;42.692;23.278;2022-12-07T03:24:54;39.27;;;18.10;;
6131;SDS011;3097;42.692;23.278;2022-12-07T03:27:26;37.67;;;18.23;;
6131;SDS011;3097;42.692;23.278;2022-12-07T03:32:36;53.10;;;21.67;;
6131;SDS011;3097;42.692;23.278;2022-12-07T03:37:53;44.63;;;22.60;;
6131;SDS011;3097;42.692;23.278;2022-12-07T03:40:42;54.77;;;24.70;;
6131;SDS011;3097;42.692;23.278;2022-12-07T03:43:14;59.93;;;27.67;;
6131;SDS011;3097;42.692;23.278;2022-12-07T03:45:42;57.80;;;26.90;;
6131;SDS011;3097;42.692;23.278;2022-12-07T03:48:22;54.47;;;26.27;;
6131;SDS011;3097;42.692;23.278;2022-12-07T03:50:57;62.43;;;26.53;;
6131;SDS011;3097;42.692;23.278;2022-12-07T03:53:52;66.40;;;30.10;;
6131;SDS011;3097;42.692;23.278;2022-12-07T03:56:27;75.40;;;30.80;;
6131;SDS011;3097;42.692;23.278;2022-12-07T03:58:54;69.33;;;31.40;;
6131;SDS011;3097;42.692;23.278;2022-12-07T04:01:20;67.53;;;30.70;;
6131;SDS011;3097;42.692;23.278;2022-12-07T04:03:45;64.97;;;28.63;;
6131;SDS011;3097;42.692;23.278;2022-12-07T04:06:11;62.23;;;27.20;;
6131;SDS011;3097;42.692;23.278;2022-12-07T04:08:36;54.77;;;23.63;;
6131;SDS011;3097;42.692;23.278;2022-12-07T04:11:02;58.13;;;25.17;;
6131;SDS011;3097;42.692;23.278;2022-12-07T04:13:27;54.80;;;24.67;;
6131;SDS011;3097;42.692;23.278;2022-12-07T04:15:53;59.83;;;26.47;;
6131;SDS011;3097;42.692;23.278;2022-12-07T04:18:18;55.33;;;25.90;;
6131;SDS011;3097;42.692;23.278;2022-12-07T04:20:45;60.53;;;27.70;;
6131;SDS011;3097;42.692;23.278;2022-12-07T04:23:11;67.93;;;27.97;;
6131;SDS011;3097;42.692;23.278;2022-12-07T04:25:36;59.33;;;28.27;;
6131;SDS011;3097;42.692;23.278;2022-12-07T04:28:02;70.73;;;30.07;;
6131;SDS011;3097;42.692;23.278;2022-12-07T04:30:27;64.83;;;27.50;;
6131;SDS011;3097;42.692;23.278;2022-12-07T04:32:53;97.33;;;40.20;;
6131;SDS011;3097;42.692;23.278;2022-12-07T04:35:18;118.87;;;48.63;;
6131;SDS011;3097;42.692;23.278;2022-12-07T04:37:44;110.00;;;44.53;;
6131;SDS011;3097;42.692;23.278;2022-12-07T04:40:09;107.47;;;45.63;;
6131;SDS011;3097;42.692;23.278;2022-12-07T04:42:36;93.53;;;39.37;;
6131;SDS011;3097;42.692;23.278;2022-12-07T04:45:02;98.83;;;39.83;;
6131;SDS011;3097;42.692;23.278;2022-12-07T04:47:28;104.33;;;38.30;;
6131;SDS011;3097;42.692;23.278;2022-12-07T04:49:54;87.67;;;37.07;;
6131;SDS011;3097;42.692;23.278;2022-12-07T04:52:19;78.70;;;33.57;;
6131;SDS011;3097;42.692;23.278;2022-12-07T04:54:45;71.20;;;31.50;;
6131;SDS011;3097;42.692;23.278;2022-12-07T04:57:11;78.40;;;33.27;;
6131;SDS011;3097;42.692;23.278;2022-12-07T04:59:36;91.07;;;39.43;;
6131;SDS011;3097;42.692;23.278;2022-12-07T05:02:02;82.97;;;37.53;;
6131;SDS011;3097;42.692;23.278;2022-12-07T05:04:27;90.87;;;38.13;;
6131;SDS011;3097;42.692;23.278;2022-12-07T05:06:53;90.00;;;38.40;;
6131;SDS011;3097;42.692;23.278;2022-12-07T05:09:18;92.50;;;37.70;;
6131;SDS011;3097;42.692;23.278;2022-12-07T05:11:44;78.07;;;33.50;;
6131;SDS011;3097;42.692;23.278;2022-12-07T05:14:16;80.00;;;32.23;;
6131;SDS011;3097;42.692;23.278;2022-12-07T05:16:44;71.53;;;32.33;;
6131;SDS011;3097;42.692;23.278;2022-12-07T05:19:11;74.37;;;31.97;;
6131;SDS011;3097;42.692;23.278;2022-12-07T05:21:38;84.27;;;34.53;;
6131;SDS011;3097;42.692;23.278;2022-12-07T05:24:04;73.87;;;33.83;;
6131;SDS011;3097;42.692;23.278;2022-12-07T05:26:31;82.40;;;34.30;;
6131;SDS011;3097;42.692;23.278;2022-12-07T05:28:56;81.83;;;33.77;;
6131;SDS011;3097;42.692;23.278;2022-12-07T05:31:22;71.87;;;32.37;;
6131;SDS011;3097;42.692;23.278;2022-12-07T05:33:49;65.20;;;29.03;;
6131;SDS011;3097;42.692;23.278;2022-12-07T05:36:15;64.87;;;28.93;;
6131;SDS011;3097;42.692;23.278;2022-12-07T05:38:41;62.90;;;27.60;;
6131;SDS011;3097;42.692;23.278;2022-12-07T05:41:07;70.97;;;31.17;;
6131;SDS011;3097;42.692;23.278;2022-12-07T05:43:54;68.67;;;29.10;;
6131;SDS011;3097;42.692;23.278;2022-12-07T05:46:20;69.80;;;31.07;;
6131;SDS011;3097;42.692;23.278;2022-12-07T05:48:45;76.33;;;31.20;;
6131;SDS011;3097;42.692;23.278;2022-12-07T05:51:11;77.33;;;33.93;;
6131;SDS011;3097;42.692;23.278;2022-12-07T05:53:36;83.77;;;35.63;;
6131;SDS011;3097;42.692;23.278;2022-12-07T05:56:01;89.27;;;36.83;;
6131;SDS011;3097;42.692;23.278;2022-12-07T05:58:27;87.00;;;35.60;;
6131;SDS011;3097;42.692;23.278;2022-12-07T06:01:11;103.50;;;41.30;;
6131;SDS011;3097;42.692;23.278;2022-12-07T06:03:36;109.87;;;44.33;;
6131;SDS011;3097;42.692;23.278;2022-12-07T06:06:02;110.33;;;44.00;;
6131;SDS011;3097;42.692;23.278;2022-12-07T06:08:27;90.03;;;38.30;;
6131;SDS011;3097;42.692;23.278;2022-12-07T06:10:53;81.87;;;32.77;;
6131;SDS011;3097;42.692;23.278;2022-12-07T06:13:38;107.17;;;40.80;;
6131;SDS011;3097;42.692;23.278;2022-12-07T06:16:03;101.80;;;41.30;;
6131;SDS011;3097;42.692;23.278;2022-12-07T06:18:29;140.23;;;54.93;;
6131;SDS011;3097;42.692;23.278;2022-12-07T06:20:55;141.10;;;60.40;;
6131;SDS011;3097;42.692;23.278;2022-12-07T06:23:20;165.83;;;69.30;;
6131;SDS011;3097;42.692;23.278;2022-12-07T06:25:45;159.83;;;70.33;;
6131;SDS011;3097;42.692;23.278;2022-12-07T06:28:11;175.73;;;74.07;;
6131;SDS011;3097;42.692;23.278;2022-12-07T06:30:36;231.50;;;105.33;;
6131;SDS011;3097;42.692;23.278;2022-12-07T06:33:02;235.90;;;111.50;;
6131;SDS011;3097;42.692;23.278;2022-12-07T06:35:27;208.73;;;87.23;;
6131;SDS011;3097;42.692;23.278;2022-12-07T06:37:53;196.80;;;86.57;;
6131;SDS011;3097;42.692;23.278;2022-12-07T06:40:18;197.67;;;81.97;;
6131;SDS011;3097;42.692;23.278;2022-12-07T06:42:43;189.93;;;81.83;;
6131;SDS011;3097;42.692;23.278;2022-12-07T06:45:09;174.57;;;75.80;;
6131;SDS011;3097;42.692;23.278;2022-12-07T06:47:35;128.47;;;52.67;;
6131;SDS011;3097;42.692;23.278;2022-12-07T06:50:00;130.43;;;52.27;;
6131;SDS011;3097;42.692;23.278;2022-12-07T06:52:26;136.77;;;51.27;;
6131;SDS011;3097;42.692;23.278;2022-12-07T06:54:51;133.87;;;50.70;;
6131;SDS011;3097;42.692;23.278;2022-12-07T06:57:16;89.90;;;37.43;;
6131;SDS011;3097;42.692;23.278;2022-12-07T06:59:43;77.83;;;33.23;;
6131;SDS011;3097;42.692;23.278;2022-12-07T07:02:08;70.53;;;31.33;;
6131;SDS011;3097;42.692;23.278;2022-12-07T07:04:34;69.30;;;28.50;;
6131;SDS011;3097;42.692;23.278;2022-12-07T07:07:00;67.83;;;28.70;;
6131;SDS011;3097;42.692;23.278;2022-12-07T07:09:25;73.50;;;29.73;;
6131;SDS011;3097;42.692;23.278;2022-12-07T07:11:51;69.77;;;31.63;;
6131;SDS011;3097;42.692;23.278;2022-12-07T07:14:16;73.33;;;30.87;;
6131;SDS011;3097;42.692;23.278;2022-12-07T07:16:44;76.43;;;30.90;;
6131;SDS011;3097;42.692;23.278;2022-12-07T07:19:09;85.97;;;31.23;;
6131;SDS011;3097;42.692;23.278;2022-12-07T07:21:36;70.87;;;31.07;;
6131;SDS011;3097;42.692;23.278;2022-12-07T07:24:01;78.57;;;31.67;;
6131;SDS011;3097;42.692;23.278;2022-12-07T07:26:27;64.70;;;28.40;;
6131;SDS011;3097;42.692;23.278;2022-12-07T07:28:52;66.47;;;27.30;;
6131;SDS011;3097;42.692;23.278;2022-12-07T07:31:18;65.77;;;28.70;;
6131;SDS011;3097;42.692;23.278;2022-12-07T07:33:44;50.27;;;22.40;;
6131;SDS011;3097;42.692;23.278;2022-12-07T07:36:11;56.43;;;22.60;;
6131;SDS011;3097;42.692;23.278;2022-12-07T07:38:37;55.47;;;22.80;;
6131;SDS011;3097;42.692;23.278;2022-12-07T07:41:02;52.40;;;24.00;;
6131;SDS011;3097;42.692;23.278;2022-12-07T07:43:28;55.10;;;26.37;;
6131;SDS011;3097;42.692;23.278;2022-12-07T07:45:53;63.13;;;28.67;;
6131;SDS011;3097;42.692;23.278;2022-12-07T07:48:19;66.40;;;28.60;;
6131;SDS011;3097;42.692;23.278;2022-12-07T07:50:44;64.13;;;28.67;;
6131;SDS011;3097;42.692;23.278;2022-12-07T07:53:10;61.10;;;26.73;;
6131;SDS011;3097;42.692;23.278;2022-12-07T07:55:35;60.77;;;27.10;;
6131;SDS011;3097;42.692;23.278;2022-12-07T07:58:01;63.23;;;27.77;;
6131;SDS011;3097;42.692;23.278;2022-12-07T08:00:26;63.80;;;27.70;;
6131;SDS011;3097;42.692;23.278;2022-12-07T08:02:52;56.30;;;25.83;;
6131;SDS011;3097;42.692;23.278;2022-12-07T08:05:17;52.83;;;23.47;;
6131;SDS011;3097;42.692;23.278;2022-12-07T08:07:43;44.27;;;20.50;;
6131;SDS011;3097;42.692;23.278;2022-12-07T08:10:09;43.33;;;20.47;;
6131;SDS011;3097;42.692;23.278;2022-12-07T08:12:38;42.50;;;20.23;;
6131;SDS011;3097;42.692;23.278;2022-12-07T08:15:25;47.57;;;19.93;;
6131;SDS011;3097;42.692;23.278;2022-12-07T08:17:55;39.33;;;18.93;;
6131;SDS011;3097;42.692;23.278;2022-12-07T08:20:20;44.90;;;19.70;;
6131;SDS011;3097;42.692;23.278;2022-12-07T08:22:46;43.40;;;19.93;;
6131;SDS011;3097;42.692;23.278;2022-12-07T08:25:12;44.07;;;21.23;;
6131;SDS011;3097;42.692;23.278;2022-12-07T08:27:37;38.67;;;18.87;;
6131;SDS011;3097;42.692;23.278;2022-12-07T08:30:03;41.07;;;19.93;;
6131;SDS011;3097;42.692;23.278;2022-12-07T08:32:29;42.30;;;18.90;;
6131;SDS011;3097;42.692;23.278;2022-12-07T08:34:54;44.57;;;19.67;;
6131;SDS011;3097;42.692;23.278;2022-12-07T08:37:20;43.70;;;20.23;;
6131;SDS011;3097;42.692;23.278;2022-12-07T08:39:45;47.37;;;21.83;;
6131;SDS011;3097;42.692;23.278;2022-12-07T08:42:11;45.40;;;20.33;;
6131;SDS011;3097;42.692;23.278;2022-12-07T08:44:36;55.57;;;21.50;;
6131;SDS011;3097;42.692;23.278;2022-12-07T08:47:03;49.03;;;20.97;;
6131;SDS011;3097;42.692;23.278;2022-12-07T08:49:33;47.93;;;21.10;;
6131;SDS011;3097;42.692;23.278;2022-12-07T08:52:05;45.93;;;22.37;;
6131;SDS011;3097;42.692;23.278;2022-12-07T08:54:31;54.17;;;24.47;;
6131;SDS011;3097;42.692;23.278;2022-12-07T08:57:00;50.83;;;23.30;;
6131;SDS011;3097;42.692;23.278;2022-12-07T08:59:26;52.60;;;24.70;;
6131;SDS011;3097;42.692;23.278;2022-12-07T09:01:53;51.47;;;24.27;;
6131;SDS011;3097;42.692;23.278;2022-12-07T09:04:19;54.83;;;25.80;;
6131;SDS011;3097;42.692;23.278;2022-12-07T09:06:45;54.57;;;25.93;;
6131;SDS011;3097;42.692;23.278;2022-12-07T09:09:12;58.53;;;26.57;;
6131;SDS011;3097;42.692;23.278;2022-12-07T09:11:39;63.20;;;29.13;;
6131;SDS011;3097;42.692;23.278;2022-12-07T09:14:04;55.80;;;24.63;;
6131;SDS011;3097;42.692;23.278;2022-12-07T09:16:30;51.70;;;24.30;;
6131;SDS011;3097;42.692;23.278;2022-12-07T09:18:56;53.60;;;23.53;;
6131;SDS011;3097;42.692;23.278;2022-12-07T09:21:21;59.77;;;28.70;;
6131;SDS011;3097;42.692;23.278;2022-12-07T09:23:47;60.37;;;28.70;;
6131;SDS011;3097;42.692;23.278;2022-12-07T09:26:12;56.53;;;26.83;;
6131;SDS011;3097;42.692;23.278;2022-12-07T09:28:38;54.97;;;26.30;;
6131;SDS011;3097;42.692;23.278;2022-12-07T09:31:04;64.03;;;26.90;;
6131;SDS011;3097;42.692;23.278;2022-12-07T09:33:29;61.23;;;26.47;;
6131;SDS011;3097;42.692;23.278;2022-12-07T09:35:55;51.80;;;24.20;;
6131;SDS011;3097;42.692;23.278;2022-12-07T09:38:20;56.73;;;26.00;;
6131;SDS011;3097;42.692;23.278;2022-12-07T09:40:47;48.07;;;24.77;;
6131;SDS011;3097;42.692;23.278;2022-12-07T09:43:20;49.70;;;23.60;;
6131;SDS011;3097;42.692;23.278;2022-12-07T09:45:50;51.37;;;23.30;;
6131;SDS011;3097;42.692;23.278;2022-12-07T09:48:20;55.40;;;25.10;;
6131;SDS011;3097;42.692;23.278;2022-12-07T09:50:47;51.93;;;24.10;;
6131;SDS011;3097;42.692;23.278;2022-12-07T09:53:56;52.20;;;23.90;;
6131;SDS011;3097;42.692;23.278;2022-12-07T09:56:03;55.23;;;24.27;;
6131;SDS011;3097;42.692;23.278;2022-12-07T09:58:30;53.77;;;24.87;;
6131;SDS011;3097;42.692;23.278;2022-12-07T10:00:59;54.97;;;24.43;;
6131;SDS011;3097;42.692;23.278;2022-12-07T10:03:30;45.83;;;21.83;;
6131;SDS011;3097;42.692;23.278;2022-12-07T10:05:55;56.83;;;23.17;;
6131;SDS011;3097;42.692;23.278;2022-12-07T10:08:22;46.50;;;22.83;;
6131;SDS011;3097;42.692;23.278;2022-12-07T10:10:52;45.33;;;21.37;;
6131;SDS011;3097;42.692;23.278;2022-12-07T10:13:21;39.50;;;19.97;;
6131;SDS011;3097;42.692;23.278;2022-12-07T10:18:49;46.20;;;21.90;;
6131;SDS011;3097;42.692;23.278;2022-12-07T10:21:18;40.43;;;20.17;;
6131;SDS011;3097;42.692;23.278;2022-12-07T10:24:05;45.63;;;20.13;;
6131;SDS011;3097;42.692;23.278;2022-12-07T10:29:21;41.30;;;19.77;;
6131;SDS011;3097;42.692;23.278;2022-12-07T10:31:54;43.27;;;20.30;;
6131;SDS011;3097;42.692;23.278;2022-12-07T10:34:32;40.67;;;20.23;;
6131;SDS011;3097;42.692;23.278;2022-12-07T10:39:58;34.87;;;18.23;;
6131;SDS011;3097;42.692;23.278;2022-12-07T10:42:27;38.27;;;16.80;;
6131;SDS011;3097;42.692;23.278;2022-12-07T10:45:07;34.97;;;17.27;;
6131;SDS011;3097;42.692;23.278;2022-12-07T10:55:50;31.37;;;15.40;;
6131;SDS011;3097;42.692;23.278;2022-12-07T11:01:32;30.70;;;15.67;;
6131;SDS011;3097;42.692;23.278;2022-12-07T11:06:54;31.33;;;16.60;;
6131;SDS011;3097;42.692;23.278;2022-12-07T11:17:42;43.87;;;18.90;;
6131;SDS011;3097;42.692;23.278;2022-12-07T11:25:54;39.23;;;19.63;;
6131;SDS011;3097;42.692;23.278;2022-12-07T11:28:40;37.40;;;18.97;;
6131;SDS011;3097;42.692;23.278;2022-12-07T11:35:01;34.97;;;16.93;;
6131;SDS011;3097;42.692;23.278;2022-12-07T11:36:56;33.27;;;15.03;;
6131;SDS011;3097;42.692;23.278;2022-12-07T11:41:57;31.50;;;14.13;;
6131;SDS011;3097;42.692;23.278;2022-12-07T11:44:49;26.93;;;14.40;;
6131;SDS011;3097;42.692;23.278;2022-12-07T11:47:36;32.10;;;14.80;;
6131;SDS011;3097;42.692;23.278;2022-12-07T11:55:54;26.70;;;13.80;;
6131;SDS011;3097;42.692;23.278;2022-12-07T12:03:45;28.53;;;13.73;;
6131;SDS011;3097;42.692;23.278;2022-12-07T12:06:12;27.30;;;14.80;;
6131;SDS011;3097;42.692;23.278;2022-12-07T12:08:43;27.40;;;14.30;;
6131;SDS011;3097;42.692;23.278;2022-12-07T12:20:00;26.73;;;13.70;;
6131;SDS011;3097;42.692;23.278;2022-12-07T12:24:59;31.30;;;13.60;;
6131;SDS011;3097;42.692;23.278;2022-12-07T12:27:28;27.67;;;14.20;;
6131;SDS011;3097;42.692;23.278;2022-12-07T12:29:58;28.33;;;13.97;;
6131;SDS011;3097;42.692;23.278;2022-12-07T12:32:39;30.77;;;14.60;;
6131;SDS011;3097;42.692;23.278;2022-12-07T12:35:27;31.13;;;15.37;;
6131;SDS011;3097;42.692;23.278;2022-12-07T12:37:53;29.87;;;15.23;;
6131;SDS011;3097;42.692;23.278;2022-12-07T12:51:35;25.20;;;12.07;;
6131;SDS011;3097;42.692;23.278;2022-12-07T12:54:05;23.03;;;12.67;;
6131;SDS011;3097;42.692;23.278;2022-12-07T12:59:39;22.17;;;11.87;;
6131;SDS011;3097;42.692;23.278;2022-12-07T13:02:16;27.23;;;12.90;;
6131;SDS011;3097;42.692;23.278;2022-12-07T13:34:53;22.63;;;10.80;;
6131;SDS011;3097;42.692;23.278;2022-12-07T13:39:53;24.80;;;11.40;;
6131;SDS011;3097;42.692;23.278;2022-12-07T13:44:52;20.73;;;10.87;;
6131;SDS011;3097;42.692;23.278;2022-12-07T13:52:55;21.77;;;12.00;;
6131;SDS011;3097;42.692;23.278;2022-12-07T13:55:22;23.03;;;12.60;;
6131;SDS011;3097;42.692;23.278;2022-12-07T13:57:49;22.10;;;11.67;;
6131;SDS011;3097;42.692;23.278;2022-12-07T14:00:18;24.60;;;11.10;;
6131;SDS011;3097;42.692;23.278;2022-12-07T14:02:59;23.37;;;12.30;;
6131;SDS011;3097;42.692;23.278;2022-12-07T14:05:36;23.07;;;11.67;;
6131;SDS011;3097;42.692;23.278;2022-12-07T14:08:21;22.63;;;11.43;;
6131;SDS011;3097;42.692;23.278;2022-12-07T14:13:30;23.23;;;11.47;;
6131;SDS011;3097;42.692;23.278;2022-12-07T14:15:57;19.47;;;10.70;;
6131;SDS011;3097;42.692;23.278;2022-12-07T14:24:14;24.97;;;11.70;;
6131;SDS011;3097;42.692;23.278;2022-12-07T14:26:42;19.70;;;10.40;;
6131;SDS011;3097;42.692;23.278;2022-12-07T14:32:20;19.40;;;10.97;;
6131;SDS011;3097;42.692;23.278;2022-12-07T14:34:53;17.73;;;9.93;;
6131;SDS011;3097;42.692;23.278;2022-12-07T14:37:20;18.43;;;10.10;;
6131;SDS011;3097;42.692;23.278;2022-12-07T14:39:45;20.67;;;10.67;;
6131;SDS011;3097;42.692;23.278;2022-12-07T14:42:11;24.33;;;10.63;;
6131;SDS011;3097;42.692;23.278;2022-12-07T14:44:36;20.53;;;10.30;;
6131;SDS011;3097;42.692;23.278;2022-12-07T14:47:02;21.33;;;10.83;;
6131;SDS011;3097;42.692;23.278;2022-12-07T14:49:27;22.60;;;11.47;;
6131;SDS011;3097;42.692;23.278;2022-12-07T14:51:53;24.50;;;12.70;;
6131;SDS011;3097;42.692;23.278;2022-12-07T14:54:19;30.77;;;13.70;;
6131;SDS011;3097;42.692;23.278;2022-12-07T14:56:45;29.43;;;14.33;;
6131;SDS011;3097;42.692;23.278;2022-12-07T14:59:15;28.37;;;12.70;;
6131;SDS011;3097;42.692;23.278;2022-12-07T15:01:41;29.47;;;14.17;;
6131;SDS011;3097;42.692;23.278;2022-12-07T15:04:06;28.20;;;14.43;;
6131;SDS011;3097;42.692;23.278;2022-12-07T15:06:32;31.57;;;15.07;;
6131;SDS011;3097;42.692;23.278;2022-12-07T15:08:57;33.23;;;15.23;;
6131;SDS011;3097;42.692;23.278;2022-12-07T15:11:23;27.83;;;14.87;;
6131;SDS011;3097;42.692;23.278;2022-12-07T15:13:48;31.80;;;16.23;;
6131;SDS011;3097;42.692;23.278;2022-12-07T15:16:32;36.37;;;18.03;;
6131;SDS011;3097;42.692;23.278;2022-12-07T15:18:58;37.30;;;19.20;;
6131;SDS011;3097;42.692;23.278;2022-12-07T15:21:24;42.63;;;21.50;;
6131;SDS011;3097;42.692;23.278;2022-12-07T15:23:49;46.77;;;21.07;;
6131;SDS011;3097;42.692;23.278;2022-12-07T15:26:14;58.70;;;26.20;;
6131;SDS011;3097;42.692;23.278;2022-12-07T15:28:40;104.83;;;44.67;;
6131;SDS011;3097;42.692;23.278;2022-12-07T15:31:13;119.13;;;49.47;;
6131;SDS011;3097;42.692;23.278;2022-12-07T15:33:39;119.20;;;47.10;;
6131;SDS011;3097;42.692;23.278;2022-12-07T15:36:04;131.23;;;50.17;;
6131;SDS011;3097;42.692;23.278;2022-12-07T15:38:30;123.57;;;51.47;;
6131;SDS011;3097;42.692;23.278;2022-12-07T15:40:56;133.97;;;56.03;;
6131;SDS011;3097;42.692;23.278;2022-12-07T15:43:22;146.77;;;57.60;;
6131;SDS011;3097;42.692;23.278;2022-12-07T15:46:06;163.00;;;63.70;;
6131;SDS011;3097;42.692;23.278;2022-12-07T15:48:32;264.20;;;109.43;;
6131;SDS011;3097;42.692;23.278;2022-12-07T15:51:05;244.97;;;100.40;;
6131;SDS011;3097;42.692;23.278;2022-12-07T15:53:31;189.87;;;78.43;;
6131;SDS011;3097;42.692;23.278;2022-12-07T15:55:58;144.73;;;54.30;;
6131;SDS011;3097;42.692;23.278;2022-12-07T15:58:24;143.93;;;55.67;;
6131;SDS011;3097;42.692;23.278;2022-12-07T16:00:50;156.60;;;64.97;;
6131;SDS011;3097;42.692;23.278;2022-12-07T16:03:15;176.53;;;66.50;;
6131;SDS011;3097;42.692;23.278;2022-12-07T16:05:41;183.17;;;76.37;;
6131;SDS011;3097;42.692;23.278;2022-12-07T16:08:06;207.73;;;85.90;;
6131;SDS011;3097;42.692;23.278;2022-12-07T16:10:32;214.53;;;85.37;;
6131;SDS011;3097;42.692;23.278;2022-12-07T16:12:57;220.83;;;84.43;;
6131;SDS011;3097;42.692;23.278;2022-12-07T16:15:23;214.77;;;81.20;;
6131;SDS011;3097;42.692;23.278;2022-12-07T16:17:51;253.73;;;100.10;;
6131;SDS011;3097;42.692;23.278;2022-12-07T16:20:16;245.63;;;96.53;;
6131;SDS011;3097;42.692;23.278;2022-12-07T16:22:42;249.60;;;92.67;;
6131;SDS011;3097;42.692;23.278;2022-12-07T16:25:07;263.83;;;104.57;;
6131;SDS011;3097;42.692;23.278;2022-12-07T16:27:33;297.10;;;110.63;;
6131;SDS011;3097;42.692;23.278;2022-12-07T16:29:59;236.60;;;92.20;;
6131;SDS011;3097;42.692;23.278;2022-12-07T16:32:25;267.23;;;102.87;;
6131;SDS011;3097;42.692;23.278;2022-12-07T16:34:50;314.47;;;127.13;;
6131;SDS011;3097;42.692;23.278;2022-12-07T16:37:16;290.90;;;120.17;;
6131;SDS011;3097;42.692;23.278;2022-12-07T16:39:43;426.27;;;186.97;;
6131;SDS011;3097;42.692;23.278;2022-12-07T16:42:12;520.10;;;250.80;;
6131;SDS011;3097;42.692;23.278;2022-12-07T16:44:37;412.73;;;181.87;;
6131;SDS011;3097;42.692;23.278;2022-12-07T16:47:03;314.50;;;126.23;;
6131;SDS011;3097;42.692;23.278;2022-12-07T16:49:29;278.33;;;113.00;;
6131;SDS011;3097;42.692;23.278;2022-12-07T16:51:54;200.43;;;76.70;;
6131;SDS011;3097;42.692;23.278;2022-12-07T16:54:20;174.73;;;67.77;;
6131;SDS011;3097;42.692;23.278;2022-12-07T16:56:45;179.77;;;65.90;;
6131;SDS011;3097;42.692;23.278;2022-12-07T16:59:11;184.70;;;69.43;;
6131;SDS011;3097;42.692;23.278;2022-12-07T17:01:36;172.83;;;66.03;;
6131;SDS011;3097;42.692;23.278;2022-12-07T17:04:07;182.23;;;71.83;;
6131;SDS011;3097;42.692;23.278;2022-12-07T17:06:33;200.90;;;78.10;;
6131;SDS011;3097;42.692;23.278;2022-12-07T17:08:59;208.30;;;82.60;;
6131;SDS011;3097;42.692;23.278;2022-12-07T17:11:28;215.07;;;83.20;;
6131;SDS011;3097;42.692;23.278;2022-12-07T17:13:57;247.70;;;101.63;;
6131;SDS011;3097;42.692;23.278;2022-12-07T17:17:01;268.80;;;110.07;;
6131;SDS011;3097;42.692;23.278;2022-12-07T17:19:28;266.40;;;109.73;;
6131;SDS011;3097;42.692;23.278;2022-12-07T17:21:53;303.77;;;123.80;;